Time;durP1;ratioP1;P1;durP2;ratioP2;P2;SDS_P1;SDS_P2;PMS_P1;PMS_P2;Temp;Humidity;BMP_temperature;BMP_pressure;BME280_temperature;BME280_humidity;BME280_pressure;Samples;Min_cycle;Max_cycle;Signal;HPM_P1;HPM_P2
2022/09/07 00:01:03;;;;;;;1999.90;999.90;;;;;;;-144.65;100.00;64500.88;5015794;28;20101;-78
2022/09/07 00:03:29;;;;;;;1999.90;999.90;;;;;;;-144.65;100.00;64500.88;5015625;28;20422;-77
2022/09/07 00:05:54;;;;;;;1999.90;999.90;;;;;;;-144.65;100.00;64500.88;5015820;28;20022;-76
2022/09/07 00:08:23;;;;;;;1999.90;999.90;;;;;;;-144.65;100.00;64500.88;5014469;28;20556;-77
2022/09/07 00:11:01;;;;;;;1999.90;999.90;;;;;;;-144.65;100.00;64500.88;5014303;28;20030;-77
2022/09/07 00:13:29;;;;;;;1999.90;999.90;;;;;;;-144.65;100.00;64500.88;5014530;28;20045;-77
2022/09/07 00:15:55;;;;;;;1999.90;999.90;;;;;;;-144.65;100.00;64500.88;5013202;28;20030;-77
2022/09/07 00:18:21;;;;;;;1999.90;999.90;;;;;;;-144.65;100.00;64500.88;5014257;28;20037;-79
2022/09/07 00:20:46;;;;;;;1999.90;999.90;;;;;;;-144.65;100.00;64500.88;5015225;28;20030;-78
2022/09/07 00:23:12;;;;;;;1999.90;999.90;;;;;;;-144.65;100.00;64500.88;5013957;28;20026;-77
2022/09/07 00:25:38;;;;;;;1999.90;999.90;;;;;;;-144.65;100.00;64500.88;5016496;28;20117;-78
2022/09/07 00:28:06;;;;;;;1999.90;999.90;;;;;;;-144.65;100.00;64500.88;5015029;28;20046;-77
2022/09/07 00:30:33;;;;;;;1999.90;999.90;;;;;;;-144.65;100.00;64500.88;5015435;28;20065;-76
2022/09/07 00:32:58;;;;;;;1999.90;999.90;;;;;;;-144.65;100.00;64500.88;5020764;28;20057;-77
2022/09/07 00:35:23;;;;;;;1999.90;999.90;;;;;;;-144.65;100.00;64500.88;5025729;28;20029;-76
2022/09/07 00:37:49;;;;;;;1999.90;999.90;;;;;;;-144.65;100.00;64500.88;5030076;28;20104;-76
2022/09/07 00:40:14;;;;;;;1999.90;999.90;;;;;;;-144.65;100.00;64500.88;5030910;28;20466;-77
2022/09/07 00:42:40;;;;;;;1999.90;999.90;;;;;;;-144.65;100.00;64500.88;5032081;28;20025;-76
2022/09/07 00:45:20;;;;;;;1999.90;999.90;;;;;;;-144.65;100.00;64500.88;5031082;28;20032;-76
2022/09/07 00:48:15;;;;;;;1999.90;999.90;;;;;;;-144.65;100.00;64500.88;5031797;28;20039;-76
2022/09/07 00:50:51;;;;;;;1999.90;999.90;;;;;;;-144.65;100.00;64500.88;5031735;28;20033;-76
2022/09/07 00:53:28;;;;;;;1999.90;999.90;;;;;;;-144.65;100.00;64500.88;5030851;28;20095;-76
2022/09/07 00:55:56;;;;;;;1999.90;999.90;;;;;;;-144.65;100.00;64500.88;5031770;28;20034;-76
2022/09/07 00:58:22;;;;;;;1999.90;999.90;;;;;;;-144.65;100.00;64500.88;5031373;28;20033;-76
2022/09/07 01:00:49;;;;;;;1999.90;999.90;;;;;;;-144.65;100.00;64500.88;5031012;28;20029;-77
2022/09/07 01:03:24;;;;;;;1999.90;999.90;;;;;;;-144.65;100.00;64500.88;5030073;28;20018;-76
2022/09/07 01:05:57;;;;;;;1999.90;999.90;;;;;;;-144.65;100.00;64500.88;5030332;28;20091;-76
2022/09/07 01:08:23;;;;;;;1999.90;999.90;;;;;;;-144.65;100.00;64500.88;5030781;28;20033;-76
2022/09/07 01:10:48;;;;;;;1999.90;999.90;;;;;;;-144.65;100.00;64500.88;5030568;28;20080;-76
2022/09/07 01:13:14;;;;;;;1999.90;999.90;;;;;;;-144.65;100.00;64500.88;5030367;28;20457;-76
2022/09/07 01:16:01;;;;;;;1999.90;999.90;;;;;;;-144.65;100.00;64500.88;5031663;28;20056;-76
2022/09/07 01:18:55;;;;;;;1999.90;999.90;;;;;;;-144.65;100.00;64500.88;5029814;28;20083;-77
2022/09/07 01:21:23;;;;;;;1999.90;999.90;;;;;;;-144.65;100.00;64500.88;5030035;28;20531;-76
2022/09/07 01:24:20;;;;;;;1999.90;999.90;;;;;;;-144.65;100.00;64500.88;5029875;28;20173;-77
2022/09/07 01:27:16;;;;;;;1999.90;999.90;;;;;;;-144.65;100.00;64500.88;5031602;28;20029;-76
2022/09/07 01:30:02;;;;;;;1999.90;999.90;;;;;;;-144.65;100.00;64500.88;5029779;28;20064;-76
2022/09/07 01:32:43;;;;;;;1999.90;999.90;;;;;;;-144.65;100.00;64500.88;5029612;28;20116;-76
2022/09/07 01:35:20;;;;;;;1999.90;999.90;;;;;;;-144.65;100.00;64500.88;5009539;28;20631;-76
2022/09/07 01:38:06;;;;;;;1999.90;999.90;;;;;;;-144.65;100.00;64500.88;5010455;28;20088;-76
2022/09/07 01:40:49;;;;;;;;;;;;;;;-144.65;100.00;64500.88;5011857;28;20073;-77
2022/09/07 01:43:38;;;;;;;1999.90;999.90;;;;;;;-144.65;100.00;64500.88;5011357;28;20044;-76
2022/09/07 01:46:08;;;;;;;1999.90;999.90;;;;;;;-144.65;100.00;64500.88;4966760;28;20046;-77
2022/09/07 01:48:35;;;;;;;1999.90;999.90;;;;;;;-144.65;100.00;64500.88;5011549;28;20077;-76
2022/09/07 01:51:11;;;;;;;1999.90;999.90;;;;;;;-144.65;100.00;64500.88;5011178;28;20045;-76
2022/09/07 01:53:42;;;;;;;1999.90;999.90;;;;;;;-144.65;100.00;64500.88;5009259;28;20038;-76
2022/09/07 01:56:15;;;;;;;1999.90;999.90;;;;;;;-144.65;100.00;64500.88;5011585;28;20014;-76
2022/09/07 01:58:50;;;;;;;1999.90;999.90;;;;;;;-144.65;100.00;64500.88;5011416;28;20131;-76
2022/09/07 02:01:27;;;;;;;1999.90;999.90;;;;;;;-144.65;100.00;64500.88;5010957;28;20022;-77
2022/09/07 02:03:59;;;;;;;1999.90;999.90;;;;;;;-144.65;100.00;64500.88;4993731;28;20121;-77
2022/09/07 02:06:31;;;;;;;1999.90;999.90;;;;;;;-144.65;100.00;64500.88;5010099;28;20040;-77
2022/09/07 02:08:59;;;;;;;1999.90;999.90;;;;;;;-144.65;100.00;64500.88;5009297;28;20034;-77
2022/09/07 02:11:36;;;;;;;1999.90;999.90;;;;;;;-144.65;100.00;64500.88;5010997;28;20100;-76
2022/09/07 02:14:13;;;;;;;1999.90;999.90;;;;;;;-144.65;100.00;64500.88;4993329;28;20036;-76
2022/09/07 02:16:47;;;;;;;1999.90;999.90;;;;;;;-144.65;100.00;64500.88;5009701;28;20036;-77
2022/09/07 02:19:15;;;;;;;1999.90;999.90;;;;;;;-144.65;100.00;64500.88;5009387;28;20034;-76
2022/09/07 02:21:46;;;;;;;1999.90;999.90;;;;;;;-144.65;100.00;64500.88;5010052;28;20026;-76
2022/09/07 02:24:19;;;;;;;1999.90;999.90;;;;;;;-144.65;100.00;64500.88;5008512;28;20443;-77
2022/09/07 02:26:48;;;;;;;1999.90;999.90;;;;;;;-144.65;100.00;64500.88;5010374;28;20034;-76
2022/09/07 02:29:13;;;;;;;1999.90;999.90;;;;;;;-144.65;100.00;64500.88;5010021;28;20033;-76
2022/09/07 02:31:40;;;;;;;1999.90;999.90;;;;;;;-144.65;100.00;64500.88;5009898;28;20061;-76
2022/09/07 02:34:05;;;;;;;1999.90;999.90;;;;;;;-144.65;100.00;64500.88;5008890;28;20025;-76
2022/09/07 02:36:37;;;;;;;1999.90;999.90;;;;;;;-144.65;100.00;64500.88;5009739;28;20077;-76
2022/09/07 02:39:02;;;;;;;1999.90;999.90;;;;;;;-144.65;100.00;64500.88;5010077;28;20109;-76
2022/09/07 02:41:32;;;;;;;1999.90;999.90;;;;;;;-144.65;100.00;64500.88;5010270;28;20112;-77
2022/09/07 02:44:01;;;;;;;1999.90;999.90;;;;;;;-144.65;100.00;64500.88;5010445;28;20030;-76
2022/09/07 02:46:35;;;;;;;1999.90;999.90;;;;;;;-144.65;100.00;64500.88;5010160;28;20041;-76
2022/09/07 02:49:24;;;;;;;1999.90;999.90;;;;;;;-144.65;100.00;64500.88;5010431;28;20069;-76
2022/09/07 02:52:26;;;;;;;1999.90;999.90;;;;;;;-144.65;100.00;64500.88;5009544;28;20042;-76
2022/09/07 02:55:05;;;;;;;1999.90;999.90;;;;;;;-144.65;100.00;64500.88;5010283;28;20092;-76
2022/09/07 02:57:57;;;;;;;1999.90;999.90;;;;;;;-144.65;100.00;64500.88;5010537;28;20026;-76
2022/09/07 03:00:25;;;;;;;1999.90;999.90;;;;;;;-144.65;100.00;64500.88;5009079;28;20141;-75
2022/09/07 03:03:11;;;;;;;1999.90;999.90;;;;;;;-144.65;100.00;64500.88;5011052;28;20113;-76
2022/09/07 03:05:45;;;;;;;1999.90;999.90;;;;;;;-144.65;100.00;64500.88;5010138;28;20081;-77
2022/09/07 03:08:15;;;;;;;1999.90;999.90;;;;;;;-144.65;100.00;64500.88;5010151;28;20042;-75
2022/09/07 03:10:41;;;;;;;1999.90;999.90;;;;;;;-144.65;100.00;64500.88;5026369;28;20044;-76
2022/09/07 03:13:07;;;;;;;1999.90;999.90;;;;;;;-144.65;100.00;64500.88;5024493;28;20068;-76
2022/09/07 03:15:33;;;;;;;1999.90;999.90;;;;;;;-144.65;100.00;64500.88;5011345;28;20439;-77
2022/09/07 03:17:58;;;;;;;1999.90;999.90;;;;;;;-144.65;100.00;64500.88;5008773;28;20403;-76
2022/09/07 03:20:24;;;;;;;1999.90;999.90;;;;;;;-144.65;100.00;64500.88;5009990;28;20112;-77
2022/09/07 03:22:51;;;;;;;1999.90;999.90;;;;;;;-144.65;100.00;64500.88;5018749;28;20478;-77
2022/09/07 03:25:17;;;;;;;1999.90;999.90;;;;;;;-144.65;100.00;64500.88;5031736;28;20116;-78
2022/09/07 03:27:43;;;;;;;1999.90;999.90;;;;;;;-144.65;100.00;64500.88;5036012;28;20491;-76
2022/09/07 03:30:10;;;;;;;1999.90;999.90;;;;;;;-144.65;100.00;64500.88;5026120;28;20073;-76
2022/09/07 03:32:37;;;;;;;1999.90;999.90;;;;;;;-144.65;100.00;64500.88;5034688;28;20084;-76
2022/09/07 03:35:05;;;;;;;1999.90;999.90;;;;;;;-144.65;100.00;64500.88;5014836;28;20084;-76
2022/09/07 03:37:34;;;;;;;1999.90;999.90;;;;;;;-144.65;100.00;64500.88;5010942;28;20018;-76
2022/09/07 03:39:59;;;;;;;1999.90;999.90;;;;;;;-144.65;100.00;64500.88;5011393;28;20048;-76
2022/09/07 03:42:24;;;;;;;1999.90;999.90;;;;;;;-144.65;100.00;64500.88;5027928;28;20467;-76
2022/09/07 03:44:50;;;;;;;1999.90;999.90;;;;;;;-144.65;100.00;64500.88;5012583;28;20121;-76
2022/09/07 03:47:16;;;;;;;1999.90;999.90;;;;;;;-144.65;100.00;64500.88;5032090;28;20037;-77
2022/09/07 03:49:42;;;;;;;1999.90;999.90;;;;;;;-144.65;100.00;64500.88;5052475;28;20047;-76
2022/09/07 03:52:07;;;;;;;1999.90;999.90;;;;;;;-144.65;100.00;64500.88;5051244;28;20054;-76
2022/09/07 03:54:33;;;;;;;1999.90;999.90;;;;;;;-144.65;100.00;64500.88;5052244;28;20021;-76
2022/09/07 03:56:58;;;;;;;1999.90;999.90;;;;;;;-144.65;100.00;64500.88;5052568;28;20033;-76
2022/09/07 03:59:23;;;;;;;1999.90;999.90;;;;;;;-144.65;100.00;64500.88;5052236;28;20087;-76
2022/09/07 04:01:49;;;;;;;1999.90;999.90;;;;;;;-144.65;100.00;64500.88;5052380;28;20044;-76
2022/09/07 04:04:14;;;;;;;1999.90;999.90;;;;;;;-144.65;100.00;64500.88;5035641;28;20496;-75
2022/09/07 04:06:39;;;;;;;1999.90;999.90;;;;;;;-144.65;100.00;64500.88;5034756;28;20044;-77
2022/09/07 04:09:09;;;;;;;1999.90;999.90;;;;;;;-144.65;100.00;64500.88;5052977;28;20488;-76
2022/09/07 04:11:34;;;;;;;1999.90;999.90;;;;;;;-144.65;100.00;64500.88;5053760;28;20188;-76
2022/09/07 04:14:00;;;;;;;1999.90;999.90;;;;;;;-144.65;100.00;64500.88;5034431;28;20116;-76
2022/09/07 04:16:26;;;;;;;1999.90;999.90;;;;;;;-144.65;100.00;64500.88;5052686;28;20009;-76
2022/09/07 04:18:56;;;;;;;1999.90;999.90;;;;;;;-144.65;100.00;64500.88;5052158;28;20037;-76
2022/09/07 04:21:22;;;;;;;1999.90;999.90;;;;;;;-144.65;100.00;64500.88;5052816;28;20037;-76
2022/09/07 04:23:48;;;;;;;1999.90;999.90;;;;;;;-144.65;100.00;64500.88;5052673;28;20558;-76
2022/09/07 04:26:16;;;;;;;1999.90;999.90;;;;;;;-144.65;100.00;64500.88;5035049;28;20025;-76
2022/09/07 04:28:42;;;;;;;1999.90;999.90;;;;;;;-144.65;100.00;64500.88;5052308;28;20029;-76
2022/09/07 04:31:08;;;;;;;1999.90;999.90;;;;;;;-144.65;100.00;64500.88;5052477;28;20017;-76
2022/09/07 04:33:33;;;;;;;1999.90;999.90;;;;;;;-144.65;100.00;64500.88;5052265;28;20127;-76
2022/09/07 04:36:02;;;;;;;1999.90;999.90;;;;;;;-144.65;100.00;64500.88;5052268;28;20029;-77
2022/09/07 04:38:28;;;;;;;1999.90;999.90;;;;;;;-144.65;100.00;64500.88;5034065;28;20025;-76
2022/09/07 04:41:02;;;;;;;1999.90;999.90;;;;;;;-144.65;100.00;64500.88;5032027;28;20033;-76
2022/09/07 04:43:28;;;;;;;1999.90;999.90;;;;;;;-144.65;100.00;64500.88;5011456;28;20026;-76
2022/09/07 04:45:54;;;;;;;1999.90;999.90;;;;;;;-144.65;100.00;64500.88;5011653;28;20018;-76
2022/09/07 04:48:19;;;;;;;1999.90;999.90;;;;;;;-144.65;100.00;64500.88;5011875;28;20553;-76
2022/09/07 04:50:45;;;;;;;1999.90;999.90;;;;;;;-144.65;100.00;64500.88;5012406;28;20057;-76
2022/09/07 04:53:10;;;;;;;1999.90;999.90;;;;;;;-144.65;100.00;64500.88;4994644;28;20077;-76
2022/09/07 04:55:35;;;;;;;1999.90;999.90;;;;;;;-144.65;100.00;64500.88;5011799;28;20030;-77
2022/09/07 04:58:02;;;;;;;1999.90;999.90;;;;;;;-144.65;100.00;64500.88;4997377;28;20021;-82
2022/09/07 05:00:28;;;;;;;1999.90;999.90;;;;;;;-144.65;100.00;64500.88;5016574;28;20034;-82
2022/09/07 05:02:53;;;;;;;1999.90;999.90;;;;;;;-144.65;100.00;64500.88;5029757;28;20111;-84
2022/09/07 05:05:18;;;;;;;1999.90;999.90;;;;;;;-144.65;100.00;64500.88;5015700;28;20056;-80
2022/09/07 05:07:44;;;;;;;1999.90;999.90;;;;;;;-144.65;100.00;64500.88;5018169;28;20042;-78
2022/09/07 05:10:10;;;;;;;1999.90;999.90;;;;;;;-144.65;100.00;64500.88;5018246;28;20037;-82
2022/09/07 05:12:35;;;;;;;1999.90;999.90;;;;;;;-144.65;100.00;64500.88;5033319;28;20026;-81
2022/09/07 05:15:00;;;;;;;1999.90;999.90;;;;;;;-144.65;100.00;64500.88;5025891;28;20117;-81
2022/09/07 05:17:26;;;;;;;1999.90;999.90;;;;;;;-144.65;100.00;64500.88;5030433;28;20026;-83
2022/09/07 05:19:53;;;;;;;1999.90;999.90;;;;;;;-144.65;100.00;64500.88;5025704;28;20030;-77
2022/09/07 05:22:19;;;;;;;1999.90;999.90;;;;;;;-144.65;100.00;64500.88;5016891;28;20430;-77
2022/09/07 05:24:46;;;;;;;1999.90;999.90;;;;;;;-144.65;100.00;64500.88;5014898;28;20047;-80
2022/09/07 05:27:11;;;;;;;1999.90;999.90;;;;;;;-144.65;100.00;64500.88;4990613;28;20030;-81
2022/09/07 05:29:37;;;;;;;1999.90;999.90;;;;;;;-144.65;100.00;64500.88;5009874;28;20033;-79
2022/09/07 05:32:02;;;;;;;1999.90;999.90;;;;;;;-144.65;100.00;64500.88;5017966;28;20117;-77
2022/09/07 05:34:27;;;;;;;1999.90;999.90;;;;;;;-144.65;100.00;64500.88;5034306;28;20119;-80
2022/09/07 05:36:53;;;;;;;1999.90;999.90;;;;;;;-144.65;100.00;64500.88;5047948;28;20072;-80
2022/09/07 05:39:19;;;;;;;1999.90;999.90;;;;;;;-144.65;100.00;64500.88;5036568;28;20072;-82
2022/09/07 05:41:45;;;;;;;1999.90;999.90;;;;;;;-144.65;100.00;64500.88;5038333;28;20032;-82
2022/09/07 05:44:10;;;;;;;1999.90;999.90;;;;;;;-144.65;100.00;64500.88;5041162;28;20033;-86
2022/09/07 05:46:36;;;;;;;1999.90;999.90;;;;;;;-144.65;100.00;64500.88;5020568;28;20498;-82
2022/09/07 05:49:02;;;;;;;1999.90;999.90;;;;;;;-144.65;100.00;64500.88;5016209;28;20102;-79
2022/09/07 05:51:27;;;;;;;1999.90;999.90;;;;;;;-144.65;100.00;64500.88;5032078;28;20033;-78
2022/09/07 05:53:55;;;;;;;1999.90;999.90;;;;;;;-144.65;100.00;64500.88;5031180;28;20030;-75
2022/09/07 05:56:20;;;;;;;1999.90;999.90;;;;;;;-144.65;100.00;64500.88;5031016;28;20378;-75
2022/09/07 05:58:48;;;;;;;1999.90;999.90;;;;;;;-144.65;100.00;64500.88;5030377;28;20025;-75
2022/09/07 06:01:14;;;;;;;1999.90;999.90;;;;;;;-144.65;100.00;64500.88;5030944;28;20473;-75
2022/09/07 06:03:41;;;;;;;1999.90;999.90;;;;;;;-144.65;100.00;64500.88;5032703;28;20022;-80
2022/09/07 06:06:08;;;;;;;1999.90;999.90;;;;;;;-144.65;100.00;64500.88;5034054;28;20064;-79
2022/09/07 06:08:37;;;;;;;1999.90;999.90;;;;;;;-144.65;100.00;64500.88;5016194;28;20061;-79
2022/09/07 06:11:10;;;;;;;1999.90;999.90;;;;;;;-144.65;100.00;64500.88;5034394;28;20408;-79
2022/09/07 06:13:36;;;;;;;1999.90;999.90;;;;;;;-144.65;100.00;64500.88;5034737;28;20029;-79
2022/09/07 06:16:03;;;;;;;1999.90;999.90;;;;;;;-144.65;100.00;64500.88;5034376;28;20032;-78
2022/09/07 06:18:36;;;;;;;1999.90;999.90;;;;;;;-144.65;100.00;64500.88;5016075;28;20025;-77
2022/09/07 06:21:22;;;;;;;1999.90;999.90;;;;;;;-144.65;100.00;64500.88;5034390;28;20072;-80
2022/09/07 06:23:48;;;;;;;1999.90;999.90;;;;;;;-144.65;100.00;64500.88;5016015;28;20073;-80
2022/09/07 06:26:15;;;;;;;1999.90;999.90;;;;;;;-144.65;100.00;64500.88;5032122;28;20116;-78
2022/09/07 06:28:43;;;;;;;1999.90;999.90;;;;;;;-144.65;100.00;64500.88;5014478;28;20022;-79
2022/09/07 06:31:14;;;;;;;1999.90;999.90;;;;;;;-144.65;100.00;64500.88;5036076;28;20029;-79
2022/09/07 06:33:41;;;;;;;1999.90;999.90;;;;;;;-144.65;100.00;64500.88;5033934;28;20087;-79
2022/09/07 06:36:14;;;;;;;1999.90;999.90;;;;;;;-144.65;100.00;64500.88;5034705;28;20053;-80
2022/09/07 06:38:39;;;;;;;1999.90;999.90;;;;;;;-144.65;100.00;64500.88;5037343;28;20076;-79
2022/09/07 06:41:12;;;;;;;1999.90;999.90;;;;;;;-144.65;100.00;64500.88;5019264;28;20022;-79
2022/09/07 06:43:38;;;;;;;1999.90;999.90;;;;;;;-144.65;100.00;64500.88;5034441;28;20100;-79
2022/09/07 06:46:04;;;;;;;1999.90;999.90;;;;;;;-144.65;100.00;64500.88;5034291;28;20045;-80
2022/09/07 06:48:30;;;;;;;1999.90;999.90;;;;;;;-144.65;100.00;64500.88;5035134;28;20079;-79
2022/09/07 06:51:02;;;;;;;1999.90;999.90;;;;;;;-144.65;100.00;64500.88;5036909;28;20064;-83
2022/09/07 06:53:32;;;;;;;1999.90;999.90;;;;;;;-144.65;100.00;64500.88;5038515;28;20029;-83
2022/09/07 06:55:58;;;;;;;1999.90;999.90;;;;;;;-144.65;100.00;64500.88;5019443;28;20482;-80
2022/09/07 06:58:24;;;;;;;1999.90;999.90;;;;;;;-144.65;100.00;64500.88;5035171;28;20041;-79
2022/09/07 07:00:50;;;;;;;1999.90;999.90;;;;;;;-144.65;100.00;64500.88;5015874;28;20542;-77
2022/09/07 07:03:16;;;;;;;1999.90;999.90;;;;;;;-144.65;100.00;64500.88;5017542;28;20037;-78
2022/09/07 07:05:49;;;;;;;1999.90;999.90;;;;;;;-144.65;100.00;64500.88;5020576;28;20401;-77
2022/09/07 07:08:14;;;;;;;1999.90;999.90;;;;;;;-144.65;100.00;64500.88;5020656;28;20481;-80
2022/09/07 07:10:39;;;;;;;1999.90;999.90;;;;;;;-144.65;100.00;64500.88;5020296;28;20025;-78
2022/09/07 07:13:05;;;;;;;1999.90;999.90;;;;;;;-144.65;100.00;64500.88;5018168;28;20022;-78
2022/09/07 07:15:30;;;;;;;1999.90;999.90;;;;;;;-144.65;100.00;64500.88;5017641;28;20501;-79
2022/09/07 07:17:56;;;;;;;1999.90;999.90;;;;;;;-144.65;100.00;64500.88;5017996;28;20024;-78
2022/09/07 07:20:22;;;;;;;1999.90;999.90;;;;;;;-144.65;100.00;64500.88;5038030;28;20528;-82
2022/09/07 07:22:51;;;;;;;1999.90;999.90;;;;;;;-144.65;100.00;64500.88;5039972;28;20060;-84
2022/09/07 07:25:17;;;;;;;1999.90;999.90;;;;;;;-144.65;100.00;64500.88;5038617;28;20044;-80
2022/09/07 07:27:44;;;;;;;1999.90;999.90;;;;;;;-144.65;100.00;64500.88;5040143;28;20469;-86
2022/09/07 07:30:17;;;;;;;1999.90;999.90;;;;;;;-144.65;100.00;64500.88;5041265;28;20096;-83
2022/09/07 07:32:46;;;;;;;1999.90;999.90;;;;;;;-144.65;100.00;64500.88;5014932;28;20053;-80
2022/09/07 07:35:13;;;;;;;1999.90;999.90;;;;;;;-144.65;100.00;64500.88;5022659;28;20041;-81
2022/09/07 07:37:41;;;;;;;1999.90;999.90;;;;;;;-144.65;100.00;64500.88;5038597;28;20037;-78
2022/09/07 07:40:09;;;;;;;1999.90;999.90;;;;;;;-144.65;100.00;64500.88;5043228;28;20099;-79
2022/09/07 07:42:35;;;;;;;1999.90;999.90;;;;;;;-144.65;100.00;64500.88;5039095;28;20113;-79
2022/09/07 07:45:04;;;;;;;1999.90;999.90;;;;;;;-144.65;100.00;64500.88;5053306;28;20033;-79
2022/09/07 07:47:29;;;;;;;1999.90;999.90;;;;;;;-144.65;100.00;64500.88;5023408;28;20042;-78
2022/09/07 07:49:55;;;;;;;1999.90;999.90;;;;;;;-144.65;100.00;64500.88;5019859;28;20393;-78
2022/09/07 07:52:21;;;;;;;1999.90;999.90;;;;;;;-144.65;100.00;64500.88;5030941;28;20075;-78
2022/09/07 07:54:46;;;;;;;1999.90;999.90;;;;;;;-144.65;100.00;64500.88;5035761;28;20018;-79
2022/09/07 07:57:13;;;;;;;1999.90;999.90;;;;;;;-144.65;100.00;64500.88;5038364;28;20067;-82
2022/09/07 07:59:38;;;;;;;1999.90;999.90;;;;;;;-144.65;100.00;64500.88;5037005;28;20017;-79
2022/09/07 08:02:13;;;;;;;1999.90;999.90;;;;;;;-144.65;100.00;64500.88;5035967;28;20029;-77
2022/09/07 08:04:39;;;;;;;1999.90;999.90;;;;;;;-144.65;100.00;64500.88;5034548;28;20026;-77
2022/09/07 08:07:05;;;;;;;1999.90;999.90;;;;;;;-144.65;100.00;64500.88;5035827;28;20033;-78
2022/09/07 08:09:31;;;;;;;1999.90;999.90;;;;;;;-144.65;100.00;64500.88;5034918;28;20023;-81
2022/09/07 08:11:56;;;;;;;1999.90;999.90;;;;;;;-144.65;100.00;64500.88;5039354;28;20037;-82
2022/09/07 08:14:22;;;;;;;1999.90;999.90;;;;;;;-144.65;100.00;64500.88;5040098;28;20041;-82
2022/09/07 08:16:50;;;;;;;1999.90;999.90;;;;;;;-144.65;100.00;64500.88;5038872;28;20025;-80
2022/09/07 08:19:15;;;;;;;1999.90;999.90;;;;;;;-144.65;100.00;64500.88;5039821;28;20065;-80
2022/09/07 08:21:41;;;;;;;1999.90;999.90;;;;;;;-144.65;100.00;64500.88;5038902;28;20037;-80
2022/09/07 08:24:06;;;;;;;1999.90;999.90;;;;;;;-144.65;100.00;64500.88;5038607;28;20048;-82
2022/09/07 08:26:31;;;;;;;1999.90;999.90;;;;;;;-144.65;100.00;64500.88;5034778;28;20053;-80
2022/09/07 08:28:57;;;;;;;1999.90;999.90;;;;;;;-144.65;100.00;64500.88;5040411;28;20061;-81
2022/09/07 08:31:23;;;;;;;1999.90;999.90;;;;;;;-144.65;100.00;64500.88;5038435;28;20033;-78
2022/09/07 08:33:48;;;;;;;1999.90;999.90;;;;;;;-144.65;100.00;64500.88;5037024;28;20022;-82
2022/09/07 08:36:19;;;;;;;1999.90;999.90;;;;;;;-144.65;100.00;64500.88;5037804;28;20036;-79
2022/09/07 08:38:45;;;;;;;1999.90;999.90;;;;;;;-144.65;100.00;64500.88;5034812;28;20892;-80
2022/09/07 08:41:30;;;;;;;1999.90;999.90;;;;;;;-144.65;100.00;64500.88;5033871;28;20394;-79
2022/09/07 08:44:33;;;;;;;1999.90;999.90;;;;;;;-144.65;100.00;64500.88;5037261;28;20112;-80
2022/09/07 08:47:14;;;;;;;1999.90;999.90;;;;;;;-144.65;100.00;64500.88;5039951;28;20032;-78
2022/09/07 08:49:47;;;;;;;1999.90;999.90;;;;;;;-144.65;100.00;64500.88;5034680;28;20478;-77
2022/09/07 08:52:17;;;;;;;1999.90;999.90;;;;;;;-144.65;100.00;64500.88;5033881;28;20050;-78
2022/09/07 08:54:52;;;;;;;1999.90;999.90;;;;;;;-144.65;100.00;64500.88;5035800;28;20029;-81
2022/09/07 08:57:27;;;;;;;1999.90;999.90;;;;;;;-144.65;100.00;64500.88;5035541;28;20052;-90
2022/09/07 09:00:10;;;;;;;1999.90;999.90;;;;;;;-144.65;100.00;64500.88;5040248;28;20529;-77
2022/09/07 09:02:36;;;;;;;1999.90;999.90;;;;;;;-144.65;100.00;64500.88;5040671;28;20029;-77
2022/09/07 09:05:03;;;;;;;1999.90;999.90;;;;;;;-144.65;100.00;64500.88;5040734;28;20498;-77
2022/09/07 09:07:44;;;;;;;1999.90;999.90;;;;;;;-144.65;100.00;64500.88;5034785;28;20037;-78
2022/09/07 09:10:37;;;;;;;1999.90;999.90;;;;;;;-144.65;100.00;64500.88;5033414;28;20041;-75
2022/09/07 09:13:14;;;;;;;1999.90;999.90;;;;;;;-144.65;100.00;64500.88;5030699;28;20053;-77
2022/09/07 09:16:09;;;;;;;1999.90;999.90;;;;;;;-144.65;100.00;64500.88;5034509;28;20108;-77
2022/09/07 09:19:05;;;;;;;1999.90;999.90;;;;;;;-144.65;100.00;64500.88;5025485;28;20067;-77
2022/09/07 09:21:32;;;;;;;1999.90;999.90;;;;;;;-144.65;100.00;64500.88;5028841;28;20064;-78
2022/09/07 09:24:05;;;;;;;1999.90;999.90;;;;;;;-144.65;100.00;64500.88;5035344;28;20013;-77
2022/09/07 09:26:34;;;;;;;1999.90;999.90;;;;;;;-144.65;100.00;64500.88;5032462;28;20029;-78
2022/09/07 09:29:20;;;;;;;1999.90;999.90;;;;;;;-144.65;100.00;64500.88;5034611;28;20037;-79
2022/09/07 09:31:45;;;;;;;1999.90;999.90;;;;;;;-144.65;100.00;64500.88;5033158;28;20037;-79
2022/09/07 09:34:13;;;;;;;1999.90;999.90;;;;;;;-144.65;100.00;64500.88;5035563;28;20089;-80
2022/09/07 09:36:41;;;;;;;1999.90;999.90;;;;;;;-144.65;100.00;64500.88;5038287;28;20029;-81
2022/09/07 09:39:28;;;;;;;1999.90;999.90;;;;;;;-144.65;100.00;64500.88;5037277;28;20478;-84
2022/09/07 09:41:57;;;;;;;1999.90;999.90;;;;;;;-144.65;100.00;64500.88;5032870;28;20112;-83
2022/09/07 09:44:26;;;;;;;1999.90;999.90;;;;;;;-144.65;100.00;64500.88;5038418;28;20409;-80
2022/09/07 09:46:53;;;;;;;1999.90;999.90;;;;;;;-144.65;100.00;64500.88;5038091;28;20077;-82
2022/09/07 09:49:33;;;;;;;1999.90;999.90;;;;;;;-144.65;100.00;64500.88;5038507;28;20167;-84
2022/09/07 09:52:02;;;;;;;1999.90;999.90;;;;;;;-144.65;100.00;64500.88;5038027;28;20076;-82
2022/09/07 09:54:32;;;;;;;1999.90;999.90;;;;;;;-144.65;100.00;64500.88;5017641;28;20034;-81
2022/09/07 09:56:58;;;;;;;1999.90;999.90;;;;;;;-144.65;100.00;64500.88;5017823;28;20017;-82
2022/09/07 09:59:27;;;;;;;1999.90;999.90;;;;;;;-144.65;100.00;64500.88;5038334;28;20155;-81
2022/09/07 10:01:52;;;;;;;1999.90;999.90;;;;;;;-144.65;100.00;64500.88;5037895;28;20410;-89
2022/09/07 10:04:22;;;;;;;1999.90;999.90;;;;;;;-144.65;100.00;64500.88;5038363;28;20033;-84
2022/09/07 10:07:06;;;;;;;1999.90;999.90;;;;;;;-144.65;100.00;64500.88;5036537;28;20033;-83
2022/09/07 10:09:48;;;;;;;1999.90;999.90;;;;;;;-144.65;100.00;64500.88;5036668;28;20026;-83
2022/09/07 10:12:32;;;;;;;1999.90;999.90;;;;;;;-144.65;100.00;64500.88;5017094;28;20143;-84
2022/09/07 10:15:00;;;;;;;1999.90;999.90;;;;;;;-144.65;100.00;64500.88;5015780;28;20549;-88
2022/09/07 10:17:34;;;;;;;1999.90;999.90;;;;;;;-144.65;100.00;64500.88;5017464;28;20387;-83
2022/09/07 10:20:21;;;;;;;1999.90;999.90;;;;;;;-144.65;100.00;64500.88;5035720;28;20025;-85
2022/09/07 10:22:52;;;;;;;1999.90;999.90;;;;;;;-144.65;100.00;64500.88;5036603;28;20052;-79
2022/09/07 10:25:31;;;;;;;1999.90;999.90;;;;;;;-144.65;100.00;64500.88;5034103;28;20044;-81
2022/09/07 10:28:05;;;;;;;1999.90;999.90;;;;;;;-144.65;100.00;64500.88;5036208;28;20094;-88
2022/09/07 10:30:38;;;;;;;1999.90;999.90;;;;;;;-144.65;100.00;64500.88;5015546;28;20022;-81
2022/09/07 10:33:12;;;;;;;1999.90;999.90;;;;;;;-144.65;100.00;64500.88;5037272;28;20092;-78
2022/09/07 10:35:50;;;;;;;1999.90;999.90;;;;;;;-144.65;100.00;64500.88;5036671;28;20021;-79
2022/09/07 10:38:22;;;;;;;1999.90;999.90;;;;;;;-144.65;100.00;64500.88;5034991;28;20044;-83
2022/09/07 10:41:08;;;;;;;1999.90;999.90;;;;;;;-144.65;100.00;64500.88;5036553;28;20053;-80
2022/09/07 10:43:53;;;;;;;1999.90;999.90;;;;;;;-144.65;100.00;64500.88;5019225;28;20069;-79
2022/09/07 10:46:35;;;;;;;1999.90;999.90;;;;;;;-144.65;100.00;64500.88;5036492;28;20029;-78